Aeroporto :
LOGIN :

Iscrizione | Disclaimer

   EN    FR    IT 

 










Sommario :    VFR   VFR Marginale   IFR   IFR Intensivo   IFR Molto Intensivo
Visibilità : 
Base nubi : 
>= 8 km
>= 3000ft
5 / 8 km
1000 / 3000 ft
1500m / 5 km
500 / 1000 ft
800 / 1500m
200 / 500 ft
< 800m
< 200 ft
Simboli :   Temporali  Nebbia  Neve Forte  Precipitazioni Forti  Vento > 20 kt
SIGMETs :   Varie  Temporali  Ghiacco  Turbolenza  Onda orograficha  Ceneri Vulcaniche






- Altitudine del aeroporto : 295 ft
- Codice IATA : ORN


DAOO - Es senia - Oran

ULTIMO METAR :
  • 030800Z VRB02KT 9999 FEW026 07/06 Q1023

METARs OBSOLETI :
  • 030730Z 22003KT 9999 SCT026 04/03 Q1023
  • 030700Z 18004KT 9999 SCT026 03/02 Q1022
  • 030630Z 18004KT 9999 SCT026 04/02 Q1022
  • 030600Z VRB02KT 9999 SCT026 04/03 Q1022
  • 030530Z 00000KT 9999 SCT026 06/04 Q1021
  • 030500Z 00000KT 9999 SCT026 06/04 Q1021
  • 030430Z 17004KT 9999 FEW026 07/05 Q1021
  • 030400Z 17005KT 9999 FEW026 08/05 Q1021
  • 030330Z 15004KT 9999 FEW026 08/06 Q1021

TAF TAF DAOO
Valido dal 03 a 06 ore il 04 a 06 ore UTC


030500Z 0306/0406 VRB02KT 9999 SCT026
PROB40
TEMPO 0306/0308 2000 BR BKN010
BECMG 0313/0316 03012KT
BECMG 0320/0323 VRB02KT



MetMap, La meteo Aeronautica in un colpo d'occhio ! - Copyright ORBIFLY Dicembre 2007 - Disclaimer

ORBIFLY MET'MAP TEAM :

Programmazione e sviluppo : Alexandra Zaïnal
Concezione : Baudouin d'Aumeries
Supporto tecnico e logistico : Manuel Goepfert
Aiuto : Marc-Olivier Méhu
Aiuto per la traduzione : Arnaldo La Scala




FONTI E CREDITI :

   NOAA